sensor_id;sensor_type;location;lat;lon;timestamp;P1;durP1;ratioP1;P2;durP2;ratioP2
62353;SDS011;48391;49.184;2.418;2023-04-24T00:01:16;0.95;;;0.60;;
62353;SDS011;48391;49.184;2.418;2023-04-24T00:03:44;0.40;;;0.40;;
62353;SDS011;48391;49.184;2.418;2023-04-24T00:06:10;0.93;;;0.80;;
62353;SDS011;48391;49.184;2.418;2023-04-24T00:08:36;2.05;;;0.68;;
62353;SDS011;48391;49.184;2.418;2023-04-24T00:11:02;0.68;;;0.50;;
62353;SDS011;48391;49.184;2.418;2023-04-24T00:13:28;0.75;;;0.73;;
62353;SDS011;48391;49.184;2.418;2023-04-24T00:15:55;2.38;;;1.10;;
62353;SDS011;48391;49.184;2.418;2023-04-24T00:18:21;0.88;;;0.88;;
62353;SDS011;48391;49.184;2.418;2023-04-24T00:20:47;0.98;;;0.98;;
62353;SDS011;48391;49.184;2.418;2023-04-24T00:23:13;0.73;;;0.68;;
62353;SDS011;48391;49.184;2.418;2023-04-24T00:25:39;1.27;;;0.70;;
62353;SDS011;48391;49.184;2.418;2023-04-24T00:28:05;0.40;;;0.40;;
62353;SDS011;48391;49.184;2.418;2023-04-24T00:30:31;1.08;;;0.75;;
62353;SDS011;48391;49.184;2.418;2023-04-24T00:32:57;1.48;;;1.00;;
62353;SDS011;48391;49.184;2.418;2023-04-24T00:35:23;0.50;;;0.47;;
62353;SDS011;48391;49.184;2.418;2023-04-24T00:37:49;1.02;;;0.40;;
62353;SDS011;48391;49.184;2.418;2023-04-24T00:40:15;1.10;;;0.90;;
62353;SDS011;48391;49.184;2.418;2023-04-24T00:42:41;1.20;;;1.02;;
62353;SDS011;48391;49.184;2.418;2023-04-24T00:45:09;0.55;;;0.50;;
62353;SDS011;48391;49.184;2.418;2023-04-24T00:47:35;1.45;;;0.52;;
62353;SDS011;48391;49.184;2.418;2023-04-24T00:50:02;2.85;;;0.68;;
62353;SDS011;48391;49.184;2.418;2023-04-24T00:52:28;1.27;;;0.47;;
62353;SDS011;48391;49.184;2.418;2023-04-24T00:54:57;1.38;;;0.80;;
62353;SDS011;48391;49.184;2.418;2023-04-24T00:57:23;0.95;;;0.68;;
62353;SDS011;48391;49.184;2.418;2023-04-24T00:59:49;3.55;;;0.98;;
62353;SDS011;48391;49.184;2.418;2023-04-24T01:02:16;1.63;;;0.68;;
62353;SDS011;48391;49.184;2.418;2023-04-24T01:04:42;0.95;;;0.93;;
62353;SDS011;48391;49.184;2.418;2023-04-24T01:07:08;2.22;;;0.60;;
62353;SDS011;48391;49.184;2.418;2023-04-24T01:09:40;3.65;;;1.00;;
62353;SDS011;48391;49.184;2.418;2023-04-24T01:14:33;1.02;;;0.85;;
62353;SDS011;48391;49.184;2.418;2023-04-24T01:16:59;1.75;;;0.75;;
62353;SDS011;48391;49.184;2.418;2023-04-24T01:19:25;1.05;;;0.60;;
62353;SDS011;48391;49.184;2.418;2023-04-24T01:21:52;1.15;;;0.55;;
62353;SDS011;48391;49.184;2.418;2023-04-24T01:24:19;2.03;;;0.90;;
62353;SDS011;48391;49.184;2.418;2023-04-24T01:26:45;3.60;;;1.15;;
62353;SDS011;48391;49.184;2.418;2023-04-24T01:29:12;1.50;;;0.75;;
62353;SDS011;48391;49.184;2.418;2023-04-24T01:31:38;3.17;;;1.33;;
62353;SDS011;48391;49.184;2.418;2023-04-24T01:34:05;3.45;;;1.50;;
62353;SDS011;48391;49.184;2.418;2023-04-24T01:36:31;3.85;;;0.68;;
62353;SDS011;48391;49.184;2.418;2023-04-24T01:38:57;1.92;;;0.70;;
62353;SDS011;48391;49.184;2.418;2023-04-24T01:41:23;1.17;;;0.93;;
62353;SDS011;48391;49.184;2.418;2023-04-24T01:43:50;0.85;;;0.63;;
62353;SDS011;48391;49.184;2.418;2023-04-24T01:46:16;0.90;;;0.80;;
62353;SDS011;48391;49.184;2.418;2023-04-24T01:48:42;0.68;;;0.60;;
62353;SDS011;48391;49.184;2.418;2023-04-24T01:51:10;3.70;;;0.75;;
62353;SDS011;48391;49.184;2.418;2023-04-24T01:53:36;2.65;;;1.33;;
62353;SDS011;48391;49.184;2.418;2023-04-24T01:56:02;1.85;;;1.00;;
62353;SDS011;48391;49.184;2.418;2023-04-24T01:58:28;2.15;;;1.00;;
62353;SDS011;48391;49.184;2.418;2023-04-24T02:00:56;2.40;;;1.08;;
62353;SDS011;48391;49.184;2.418;2023-04-24T02:03:24;0.65;;;0.55;;
62353;SDS011;48391;49.184;2.418;2023-04-24T02:05:50;0.90;;;0.50;;
62353;SDS011;48391;49.184;2.418;2023-04-24T02:08:16;3.60;;;1.52;;
62353;SDS011;48391;49.184;2.418;2023-04-24T02:10:42;1.23;;;0.77;;
62353;SDS011;48391;49.184;2.418;2023-04-24T02:13:09;1.67;;;0.90;;
62353;SDS011;48391;49.184;2.418;2023-04-24T02:15:35;3.03;;;1.65;;
62353;SDS011;48391;49.184;2.418;2023-04-24T02:18:01;2.30;;;0.90;;
62353;SDS011;48391;49.184;2.418;2023-04-24T02:20:27;3.55;;;1.17;;
62353;SDS011;48391;49.184;2.418;2023-04-24T02:22:54;2.97;;;0.88;;
62353;SDS011;48391;49.184;2.418;2023-04-24T02:25:20;1.90;;;1.00;;
62353;SDS011;48391;49.184;2.418;2023-04-24T02:27:46;1.73;;;1.23;;
62353;SDS011;48391;49.184;2.418;2023-04-24T02:30:12;1.83;;;0.82;;
62353;SDS011;48391;49.184;2.418;2023-04-24T02:32:38;1.98;;;1.20;;
62353;SDS011;48391;49.184;2.418;2023-04-24T02:35:04;2.33;;;0.82;;
62353;SDS011;48391;49.184;2.418;2023-04-24T02:37:30;3.17;;;0.98;;
62353;SDS011;48391;49.184;2.418;2023-04-24T02:39:56;2.53;;;1.52;;
62353;SDS011;48391;49.184;2.418;2023-04-24T02:42:23;0.80;;;0.80;;
62353;SDS011;48391;49.184;2.418;2023-04-24T02:44:49;3.33;;;1.05;;
62353;SDS011;48391;49.184;2.418;2023-04-24T02:47:16;1.30;;;0.77;;
62353;SDS011;48391;49.184;2.418;2023-04-24T02:49:42;1.70;;;0.93;;
62353;SDS011;48391;49.184;2.418;2023-04-24T02:52:08;1.13;;;0.90;;
62353;SDS011;48391;49.184;2.418;2023-04-24T02:54:34;1.35;;;1.25;;
62353;SDS011;48391;49.184;2.418;2023-04-24T02:57:00;4.95;;;0.73;;
62353;SDS011;48391;49.184;2.418;2023-04-24T02:59:26;1.23;;;0.50;;
62353;SDS011;48391;49.184;2.418;2023-04-24T03:01:54;1.58;;;0.63;;
62353;SDS011;48391;49.184;2.418;2023-04-24T03:04:20;2.30;;;0.73;;
62353;SDS011;48391;49.184;2.418;2023-04-24T03:06:47;3.45;;;0.82;;
62353;SDS011;48391;49.184;2.418;2023-04-24T03:09:13;1.13;;;0.50;;
62353;SDS011;48391;49.184;2.418;2023-04-24T03:11:39;2.92;;;0.80;;
62353;SDS011;48391;49.184;2.418;2023-04-24T03:14:05;3.35;;;1.00;;
62353;SDS011;48391;49.184;2.418;2023-04-24T03:16:32;4.85;;;1.33;;
62353;SDS011;48391;49.184;2.418;2023-04-24T03:18:58;2.90;;;1.80;;
62353;SDS011;48391;49.184;2.418;2023-04-24T03:21:24;5.10;;;1.58;;
62353;SDS011;48391;49.184;2.418;2023-04-24T03:23:51;1.60;;;0.90;;
62353;SDS011;48391;49.184;2.418;2023-04-24T03:26:17;0.82;;;0.82;;
62353;SDS011;48391;49.184;2.418;2023-04-24T03:28:44;0.70;;;0.40;;
62353;SDS011;48391;49.184;2.418;2023-04-24T03:31:10;2.17;;;0.98;;
62353;SDS011;48391;49.184;2.418;2023-04-24T03:33:36;1.15;;;0.50;;
62353;SDS011;48391;49.184;2.418;2023-04-24T03:36:02;2.35;;;0.60;;
62353;SDS011;48391;49.184;2.418;2023-04-24T03:38:30;2.75;;;0.85;;
62353;SDS011;48391;49.184;2.418;2023-04-24T03:40:56;1.48;;;1.20;;
62353;SDS011;48391;49.184;2.418;2023-04-24T03:43:22;3.35;;;1.33;;
62353;SDS011;48391;49.184;2.418;2023-04-24T03:45:48;1.10;;;0.77;;
62353;SDS011;48391;49.184;2.418;2023-04-24T03:48:14;1.98;;;1.27;;
62353;SDS011;48391;49.184;2.418;2023-04-24T03:50:40;2.47;;;1.42;;
62353;SDS011;48391;49.184;2.418;2023-04-24T03:53:06;4.85;;;1.70;;
62353;SDS011;48391;49.184;2.418;2023-04-24T03:55:33;2.17;;;1.50;;
62353;SDS011;48391;49.184;2.418;2023-04-24T03:57:59;1.77;;;1.08;;
62353;SDS011;48391;49.184;2.418;2023-04-24T04:00:25;2.42;;;0.80;;
62353;SDS011;48391;49.184;2.418;2023-04-24T04:02:52;1.95;;;1.00;;
62353;SDS011;48391;49.184;2.418;2023-04-24T04:05:18;2.80;;;1.63;;
62353;SDS011;48391;49.184;2.418;2023-04-24T04:07:45;2.42;;;1.20;;
62353;SDS011;48391;49.184;2.418;2023-04-24T04:10:11;2.75;;;1.15;;
62353;SDS011;48391;49.184;2.418;2023-04-24T04:12:37;3.50;;;1.50;;
62353;SDS011;48391;49.184;2.418;2023-04-24T04:15:03;3.03;;;1.20;;
62353;SDS011;48391;49.184;2.418;2023-04-24T04:17:31;6.15;;;1.65;;
62353;SDS011;48391;49.184;2.418;2023-04-24T04:19:57;1.27;;;1.17;;
62353;SDS011;48391;49.184;2.418;2023-04-24T04:22:23;4.68;;;1.50;;
62353;SDS011;48391;49.184;2.418;2023-04-24T04:24:49;4.05;;;1.38;;
62353;SDS011;48391;49.184;2.418;2023-04-24T04:27:18;1.65;;;1.27;;
62353;SDS011;48391;49.184;2.418;2023-04-24T04:29:46;4.38;;;1.58;;
62353;SDS011;48391;49.184;2.418;2023-04-24T04:32:12;2.83;;;1.65;;
62353;SDS011;48391;49.184;2.418;2023-04-24T04:34:38;1.65;;;1.20;;
62353;SDS011;48391;49.184;2.418;2023-04-24T04:37:05;1.60;;;0.90;;
62353;SDS011;48391;49.184;2.418;2023-04-24T04:39:31;2.20;;;1.40;;
62353;SDS011;48391;49.184;2.418;2023-04-24T04:42:06;1.63;;;1.05;;
62353;SDS011;48391;49.184;2.418;2023-04-24T04:44:35;3.22;;;1.35;;
62353;SDS011;48391;49.184;2.418;2023-04-24T04:47:22;2.42;;;1.73;;
62353;SDS011;48391;49.184;2.418;2023-04-24T04:56:09;3.65;;;2.17;;
62353;SDS011;48391;49.184;2.418;2023-04-24T04:58:35;2.78;;;1.52;;
62353;SDS011;48391;49.184;2.418;2023-04-24T05:01:01;4.25;;;1.00;;
62353;SDS011;48391;49.184;2.418;2023-04-24T05:03:27;2.10;;;1.40;;
62353;SDS011;48391;49.184;2.418;2023-04-24T05:05:54;1.98;;;0.90;;
62353;SDS011;48391;49.184;2.418;2023-04-24T05:08:20;2.88;;;1.40;;
62353;SDS011;48391;49.184;2.418;2023-04-24T05:10:46;2.90;;;1.00;;
62353;SDS011;48391;49.184;2.418;2023-04-24T05:13:12;2.88;;;1.33;;
62353;SDS011;48391;49.184;2.418;2023-04-24T05:15:41;2.35;;;1.58;;
62353;SDS011;48391;49.184;2.418;2023-04-24T05:18:09;3.20;;;1.75;;
62353;SDS011;48391;49.184;2.418;2023-04-24T05:20:38;1.80;;;1.58;;
62353;SDS011;48391;49.184;2.418;2023-04-24T05:23:04;3.22;;;1.63;;
62353;SDS011;48391;49.184;2.418;2023-04-24T05:25:30;5.28;;;1.88;;
62353;SDS011;48391;49.184;2.418;2023-04-24T05:28:00;6.05;;;2.00;;
62353;SDS011;48391;49.184;2.418;2023-04-24T05:30:29;3.03;;;1.67;;
62353;SDS011;48391;49.184;2.418;2023-04-24T05:32:58;2.88;;;1.30;;
62353;SDS011;48391;49.184;2.418;2023-04-24T05:48:21;2.88;;;1.88;;
62353;SDS011;48391;49.184;2.418;2023-04-24T05:54:07;2.67;;;1.38;;
62353;SDS011;48391;49.184;2.418;2023-04-24T06:02:59;2.75;;;1.70;;
62353;SDS011;48391;49.184;2.418;2023-04-24T06:05:33;3.10;;;1.48;;
62353;SDS011;48391;49.184;2.418;2023-04-24T06:11:22;2.70;;;1.65;;
62353;SDS011;48391;49.184;2.418;2023-04-24T06:16:52;5.82;;;2.40;;
62353;SDS011;48391;49.184;2.418;2023-04-24T06:19:18;3.75;;;2.03;;
62353;SDS011;48391;49.184;2.418;2023-04-24T06:24:59;1.90;;;1.70;;
62353;SDS011;48391;49.184;2.418;2023-04-24T06:27:25;3.25;;;1.92;;
62353;SDS011;48391;49.184;2.418;2023-04-24T06:30:02;4.00;;;1.77;;
62353;SDS011;48391;49.184;2.418;2023-04-24T06:32:50;1.70;;;1.30;;
62353;SDS011;48391;49.184;2.418;2023-04-24T06:52:09;5.60;;;2.17;;
62353;SDS011;48391;49.184;2.418;2023-04-24T07:10:04;1.83;;;1.67;;
62353;SDS011;48391;49.184;2.418;2023-04-24T07:12:30;2.55;;;1.48;;
62353;SDS011;48391;49.184;2.418;2023-04-24T07:14:59;2.33;;;2.15;;
62353;SDS011;48391;49.184;2.418;2023-04-24T07:17:40;2.55;;;2.35;;
62353;SDS011;48391;49.184;2.418;2023-04-24T07:20:18;2.40;;;1.98;;
62353;SDS011;48391;49.184;2.418;2023-04-24T07:22:44;2.00;;;1.80;;
62353;SDS011;48391;49.184;2.418;2023-04-24T07:25:10;4.72;;;2.90;;
62353;SDS011;48391;49.184;2.418;2023-04-24T07:27:36;2.78;;;2.17;;
62353;SDS011;48391;49.184;2.418;2023-04-24T07:30:03;3.55;;;2.97;;
62353;SDS011;48391;49.184;2.418;2023-04-24T07:32:29;3.55;;;2.40;;
62353;SDS011;48391;49.184;2.418;2023-04-24T07:34:55;5.65;;;3.60;;
62353;SDS011;48391;49.184;2.418;2023-04-24T07:37:22;4.70;;;3.55;;
62353;SDS011;48391;49.184;2.418;2023-04-24T07:39:48;5.75;;;3.88;;
62353;SDS011;48391;49.184;2.418;2023-04-24T07:42:15;3.58;;;2.95;;
62353;SDS011;48391;49.184;2.418;2023-04-24T07:44:41;3.95;;;2.78;;
62353;SDS011;48391;49.184;2.418;2023-04-24T07:47:07;5.00;;;4.10;;
62353;SDS011;48391;49.184;2.418;2023-04-24T07:49:33;5.53;;;4.93;;
62353;SDS011;48391;49.184;2.418;2023-04-24T07:52:00;3.42;;;3.10;;
62353;SDS011;48391;49.184;2.418;2023-04-24T07:54:27;5.88;;;3.88;;
62353;SDS011;48391;49.184;2.418;2023-04-24T07:56:53;10.77;;;4.90;;
62353;SDS011;48391;49.184;2.418;2023-04-24T07:59:19;4.88;;;2.83;;
62353;SDS011;48391;49.184;2.418;2023-04-24T08:01:45;8.52;;;4.68;;
62353;SDS011;48391;49.184;2.418;2023-04-24T08:04:11;5.75;;;5.15;;
62353;SDS011;48391;49.184;2.418;2023-04-24T08:06:37;7.30;;;4.88;;
62353;SDS011;48391;49.184;2.418;2023-04-24T08:09:03;6.20;;;5.63;;
62353;SDS011;48391;49.184;2.418;2023-04-24T08:11:30;4.93;;;4.47;;
62353;SDS011;48391;49.184;2.418;2023-04-24T08:13:56;3.60;;;3.25;;
62353;SDS011;48391;49.184;2.418;2023-04-24T08:16:22;8.13;;;4.07;;
62353;SDS011;48391;49.184;2.418;2023-04-24T08:18:49;8.15;;;5.03;;
62353;SDS011;48391;49.184;2.418;2023-04-24T08:21:15;7.15;;;4.95;;
62353;SDS011;48391;49.184;2.418;2023-04-24T08:23:43;8.20;;;5.03;;
62353;SDS011;48391;49.184;2.418;2023-04-24T08:26:10;5.57;;;4.95;;
62353;SDS011;48391;49.184;2.418;2023-04-24T08:28:36;7.30;;;5.03;;
62353;SDS011;48391;49.184;2.418;2023-04-24T08:31:02;5.63;;;4.95;;
62353;SDS011;48391;49.184;2.418;2023-04-24T08:33:29;8.77;;;6.18;;
62353;SDS011;48391;49.184;2.418;2023-04-24T08:35:59;5.07;;;4.32;;
62353;SDS011;48391;49.184;2.418;2023-04-24T08:38:25;5.00;;;4.50;;
62353;SDS011;48391;49.184;2.418;2023-04-24T08:40:51;5.25;;;4.75;;
62353;SDS011;48391;49.184;2.418;2023-04-24T08:43:18;3.90;;;3.40;;
62353;SDS011;48391;49.184;2.418;2023-04-24T08:45:44;5.53;;;4.95;;
62353;SDS011;48391;49.184;2.418;2023-04-24T08:48:10;4.88;;;3.78;;
62353;SDS011;48391;49.184;2.418;2023-04-24T08:50:37;4.57;;;4.18;;
62353;SDS011;48391;49.184;2.418;2023-04-24T08:53:06;4.60;;;3.53;;
62353;SDS011;48391;49.184;2.418;2023-04-24T08:55:32;3.53;;;3.15;;
62353;SDS011;48391;49.184;2.418;2023-04-24T08:57:59;7.82;;;5.05;;
62353;SDS011;48391;49.184;2.418;2023-04-24T09:00:25;6.28;;;4.82;;
62353;SDS011;48391;49.184;2.418;2023-04-24T09:02:52;5.45;;;4.95;;
62353;SDS011;48391;49.184;2.418;2023-04-24T09:05:19;4.55;;;3.88;;
62353;SDS011;48391;49.184;2.418;2023-04-24T09:07:49;7.22;;;5.00;;
62353;SDS011;48391;49.184;2.418;2023-04-24T09:10:15;5.70;;;4.53;;
62353;SDS011;48391;49.184;2.418;2023-04-24T09:12:41;7.65;;;5.68;;
62353;SDS011;48391;49.184;2.418;2023-04-24T09:15:07;8.82;;;6.00;;
62353;SDS011;48391;49.184;2.418;2023-04-24T09:17:34;5.22;;;4.68;;
62353;SDS011;48391;49.184;2.418;2023-04-24T09:20:00;5.03;;;4.18;;
62353;SDS011;48391;49.184;2.418;2023-04-24T09:22:29;5.80;;;4.22;;
62353;SDS011;48391;49.184;2.418;2023-04-24T09:25:02;7.63;;;4.15;;
62353;SDS011;48391;49.184;2.418;2023-04-24T09:27:29;4.40;;;3.88;;
62353;SDS011;48391;49.184;2.418;2023-04-24T09:29:55;5.07;;;4.05;;
62353;SDS011;48391;49.184;2.418;2023-04-24T09:32:22;4.28;;;3.78;;
62353;SDS011;48391;49.184;2.418;2023-04-24T09:35:04;3.97;;;2.90;;
62353;SDS011;48391;49.184;2.418;2023-04-24T09:37:34;4.65;;;3.88;;
62353;SDS011;48391;49.184;2.418;2023-04-24T09:40:16;6.07;;;4.72;;
62353;SDS011;48391;49.184;2.418;2023-04-24T09:42:43;7.22;;;4.95;;
62353;SDS011;48391;49.184;2.418;2023-04-24T09:45:10;6.55;;;5.10;;
62353;SDS011;48391;49.184;2.418;2023-04-24T09:47:40;5.20;;;4.38;;
62353;SDS011;48391;49.184;2.418;2023-04-24T09:50:10;6.43;;;3.87;;
62353;SDS011;48391;49.184;2.418;2023-04-24T09:52:39;4.80;;;3.95;;
62353;SDS011;48391;49.184;2.418;2023-04-24T09:55:10;6.13;;;5.53;;
62353;SDS011;48391;49.184;2.418;2023-04-24T09:57:40;6.18;;;4.30;;
62353;SDS011;48391;49.184;2.418;2023-04-24T10:00:12;6.38;;;5.68;;
62353;SDS011;48391;49.184;2.418;2023-04-24T10:02:38;5.22;;;4.25;;
62353;SDS011;48391;49.184;2.418;2023-04-24T10:05:04;5.47;;;4.97;;
62353;SDS011;48391;49.184;2.418;2023-04-24T10:07:32;8.02;;;5.85;;
62353;SDS011;48391;49.184;2.418;2023-04-24T10:09:58;8.80;;;5.68;;
62353;SDS011;48391;49.184;2.418;2023-04-24T10:12:25;5.65;;;5.10;;
62353;SDS011;48391;49.184;2.418;2023-04-24T10:14:52;6.55;;;5.40;;
62353;SDS011;48391;49.184;2.418;2023-04-24T10:17:19;5.32;;;4.82;;
62353;SDS011;48391;49.184;2.418;2023-04-24T10:19:46;6.47;;;5.32;;
62353;SDS011;48391;49.184;2.418;2023-04-24T10:22:12;7.32;;;4.75;;
62353;SDS011;48391;49.184;2.418;2023-04-24T10:24:41;4.93;;;4.07;;
62353;SDS011;48391;49.184;2.418;2023-04-24T10:27:08;6.47;;;5.43;;
62353;SDS011;48391;49.184;2.418;2023-04-24T10:29:34;5.30;;;4.80;;
62353;SDS011;48391;49.184;2.418;2023-04-24T10:32:01;6.25;;;5.05;;
62353;SDS011;48391;49.184;2.418;2023-04-24T10:34:27;4.60;;;4.07;;
62353;SDS011;48391;49.184;2.418;2023-04-24T10:36:54;4.68;;;4.18;;
62353;SDS011;48391;49.184;2.418;2023-04-24T10:39:21;3.75;;;3.40;;
62353;SDS011;48391;49.184;2.418;2023-04-24T10:41:48;6.07;;;4.50;;
62353;SDS011;48391;49.184;2.418;2023-04-24T10:44:15;5.97;;;5.38;;
62353;SDS011;48391;49.184;2.418;2023-04-24T10:46:45;8.02;;;5.13;;
62353;SDS011;48391;49.184;2.418;2023-04-24T10:49:13;5.45;;;4.95;;
62353;SDS011;48391;49.184;2.418;2023-04-24T10:59:50;5.35;;;3.80;;
62353;SDS011;48391;49.184;2.418;2023-04-24T11:02:16;6.25;;;4.03;;
62353;SDS011;48391;49.184;2.418;2023-04-24T11:04:42;5.72;;;4.32;;
62353;SDS011;48391;49.184;2.418;2023-04-24T11:07:09;5.43;;;4.88;;
62353;SDS011;48391;49.184;2.418;2023-04-24T11:09:35;5.40;;;4.63;;
62353;SDS011;48391;49.184;2.418;2023-04-24T11:12:11;6.97;;;5.38;;
62353;SDS011;48391;49.184;2.418;2023-04-24T11:17:37;5.22;;;4.28;;
62353;SDS011;48391;49.184;2.418;2023-04-24T11:20:08;5.85;;;4.25;;
62353;SDS011;48391;49.184;2.418;2023-04-24T11:22:38;4.97;;;4.18;;
62353;SDS011;48391;49.184;2.418;2023-04-24T11:25:07;4.53;;;3.90;;
62353;SDS011;48391;49.184;2.418;2023-04-24T11:27:43;4.88;;;4.03;;
62353;SDS011;48391;49.184;2.418;2023-04-24T11:30:16;5.53;;;3.72;;
62353;SDS011;48391;49.184;2.418;2023-04-24T11:32:42;3.75;;;3.28;;
62353;SDS011;48391;49.184;2.418;2023-04-24T11:35:13;5.78;;;3.70;;
62353;SDS011;48391;49.184;2.418;2023-04-24T11:37:46;3.38;;;3.10;;
62353;SDS011;48391;49.184;2.418;2023-04-24T11:40:16;2.75;;;2.55;;
62353;SDS011;48391;49.184;2.418;2023-04-24T11:42:43;2.92;;;2.65;;
62353;SDS011;48391;49.184;2.418;2023-04-24T11:45:10;3.15;;;2.75;;
62353;SDS011;48391;49.184;2.418;2023-04-24T11:47:36;1.92;;;1.73;;
62353;SDS011;48391;49.184;2.418;2023-04-24T11:50:04;1.98;;;1.88;;
62353;SDS011;48391;49.184;2.418;2023-04-24T11:52:30;2.00;;;1.80;;
62353;SDS011;48391;49.184;2.418;2023-04-24T11:54:57;1.77;;;1.67;;
62353;SDS011;48391;49.184;2.418;2023-04-24T11:57:24;1.65;;;1.55;;
62353;SDS011;48391;49.184;2.418;2023-04-24T11:59:52;1.55;;;1.33;;
62353;SDS011;48391;49.184;2.418;2023-04-24T12:04:48;1.67;;;1.50;;
62353;SDS011;48391;49.184;2.418;2023-04-24T12:07:14;1.63;;;1.52;;
62353;SDS011;48391;49.184;2.418;2023-04-24T12:09:43;1.50;;;1.40;;
62353;SDS011;48391;49.184;2.418;2023-04-24T12:12:10;1.92;;;1.70;;
62353;SDS011;48391;49.184;2.418;2023-04-24T12:14:49;1.73;;;1.60;;
62353;SDS011;48391;49.184;2.418;2023-04-24T12:17:16;1.83;;;1.73;;
62353;SDS011;48391;49.184;2.418;2023-04-24T12:19:48;1.92;;;1.75;;
62353;SDS011;48391;49.184;2.418;2023-04-24T12:22:15;2.30;;;2.10;;
62353;SDS011;48391;49.184;2.418;2023-04-24T12:27:29;2.25;;;2.15;;
62353;SDS011;48391;49.184;2.418;2023-04-24T12:29:55;3.95;;;2.20;;
62353;SDS011;48391;49.184;2.418;2023-04-24T12:32:21;2.53;;;2.33;;
62353;SDS011;48391;49.184;2.418;2023-04-24T12:34:49;2.38;;;2.13;;
62353;SDS011;48391;49.184;2.418;2023-04-24T12:37:16;2.35;;;2.05;;
62353;SDS011;48391;49.184;2.418;2023-04-24T12:42:28;2.10;;;2.00;;
62353;SDS011;48391;49.184;2.418;2023-04-24T12:45:12;1.63;;;1.52;;
62353;SDS011;48391;49.184;2.418;2023-04-24T12:47:39;3.10;;;2.67;;
62353;SDS011;48391;49.184;2.418;2023-04-24T12:50:07;3.05;;;2.13;;
62353;SDS011;48391;49.184;2.418;2023-04-24T12:52:33;2.35;;;2.15;;
62353;SDS011;48391;49.184;2.418;2023-04-24T12:55:00;3.40;;;2.40;;
62353;SDS011;48391;49.184;2.418;2023-04-24T12:57:27;2.42;;;2.33;;
62353;SDS011;48391;49.184;2.418;2023-04-24T12:59:54;1.85;;;1.75;;
62353;SDS011;48391;49.184;2.418;2023-04-24T13:02:21;2.00;;;1.80;;
62353;SDS011;48391;49.184;2.418;2023-04-24T13:04:47;2.28;;;2.17;;
62353;SDS011;48391;49.184;2.418;2023-04-24T13:07:13;3.53;;;2.72;;
62353;SDS011;48391;49.184;2.418;2023-04-24T13:09:40;3.95;;;3.60;;
62353;SDS011;48391;49.184;2.418;2023-04-24T13:12:07;5.32;;;3.53;;
62353;SDS011;48391;49.184;2.418;2023-04-24T13:14:33;2.67;;;2.35;;
62353;SDS011;48391;49.184;2.418;2023-04-24T13:16:59;1.65;;;1.55;;
62353;SDS011;48391;49.184;2.418;2023-04-24T13:19:26;2.55;;;2.35;;
62353;SDS011;48391;49.184;2.418;2023-04-24T13:21:52;5.00;;;3.22;;
62353;SDS011;48391;49.184;2.418;2023-04-24T13:24:18;2.13;;;1.80;;
62353;SDS011;48391;49.184;2.418;2023-04-24T13:26:45;2.53;;;1.50;;
62353;SDS011;48391;49.184;2.418;2023-04-24T13:29:11;2.15;;;1.73;;
62353;SDS011;48391;49.184;2.418;2023-04-24T13:31:37;3.05;;;1.00;;
62353;SDS011;48391;49.184;2.418;2023-04-24T13:34:03;2.50;;;1.10;;
62353;SDS011;48391;49.184;2.418;2023-04-24T13:36:29;1.95;;;1.00;;
62353;SDS011;48391;49.184;2.418;2023-04-24T13:38:56;1.50;;;1.27;;
62353;SDS011;48391;49.184;2.418;2023-04-24T13:41:22;1.83;;;1.15;;
62353;SDS011;48391;49.184;2.418;2023-04-24T13:43:48;1.23;;;1.05;;
62353;SDS011;48391;49.184;2.418;2023-04-24T13:46:14;0.47;;;0.47;;
62353;SDS011;48391;49.184;2.418;2023-04-24T13:48:40;1.45;;;0.88;;
62353;SDS011;48391;49.184;2.418;2023-04-24T13:51:06;0.82;;;0.82;;
62353;SDS011;48391;49.184;2.418;2023-04-24T13:53:32;0.52;;;0.50;;
62353;SDS011;48391;49.184;2.418;2023-04-24T13:56:01;0.95;;;0.50;;
62353;SDS011;48391;49.184;2.418;2023-04-24T13:58:27;2.08;;;1.15;;
62353;SDS011;48391;49.184;2.418;2023-04-24T14:00:53;0.75;;;0.68;;
62353;SDS011;48391;49.184;2.418;2023-04-24T14:03:19;1.95;;;0.80;;
62353;SDS011;48391;49.184;2.418;2023-04-24T14:05:45;1.48;;;0.85;;
62353;SDS011;48391;49.184;2.418;2023-04-24T14:08:11;2.72;;;1.20;;
62353;SDS011;48391;49.184;2.418;2023-04-24T14:10:37;1.20;;;0.90;;
62353;SDS011;48391;49.184;2.418;2023-04-24T14:13:03;0.85;;;0.85;;
62353;SDS011;48391;49.184;2.418;2023-04-24T14:15:30;0.75;;;0.40;;
62353;SDS011;48391;49.184;2.418;2023-04-24T14:17:56;1.65;;;0.77;;
62353;SDS011;48391;49.184;2.418;2023-04-24T14:20:22;2.22;;;0.90;;
62353;SDS011;48391;49.184;2.418;2023-04-24T14:22:48;3.38;;;1.13;;
62353;SDS011;48391;49.184;2.418;2023-04-24T14:25:15;0.70;;;0.70;;
62353;SDS011;48391;49.184;2.418;2023-04-24T14:27:41;0.80;;;0.80;;
62353;SDS011;48391;49.184;2.418;2023-04-24T14:30:07;0.95;;;0.68;;
62353;SDS011;48391;49.184;2.418;2023-04-24T14:32:33;1.55;;;0.85;;
62353;SDS011;48391;49.184;2.418;2023-04-24T14:35:00;1.00;;;0.85;;
62353;SDS011;48391;49.184;2.418;2023-04-24T14:37:26;1.85;;;1.42;;
62353;SDS011;48391;49.184;2.418;2023-04-24T14:39:52;1.90;;;1.35;;
62353;SDS011;48391;49.184;2.418;2023-04-24T14:42:18;2.28;;;1.40;;
62353;SDS011;48391;49.184;2.418;2023-04-24T14:44:44;1.88;;;1.08;;
62353;SDS011;48391;49.184;2.418;2023-04-24T14:47:10;1.33;;;1.13;;
62353;SDS011;48391;49.184;2.418;2023-04-24T14:49:36;0.65;;;0.65;;
62353;SDS011;48391;49.184;2.418;2023-04-24T14:52:02;1.10;;;0.75;;
62353;SDS011;48391;49.184;2.418;2023-04-24T14:54:28;0.57;;;0.52;;
62353;SDS011;48391;49.184;2.418;2023-04-24T14:56:55;1.52;;;1.25;;
62353;SDS011;48391;49.184;2.418;2023-04-24T14:59:27;1.85;;;1.40;;
62353;SDS011;48391;49.184;2.418;2023-04-24T15:01:53;2.33;;;1.00;;
62353;SDS011;48391;49.184;2.418;2023-04-24T15:04:23;0.63;;;0.50;;
62353;SDS011;48391;49.184;2.418;2023-04-24T15:06:50;0.65;;;0.65;;
62353;SDS011;48391;49.184;2.418;2023-04-24T15:09:16;1.42;;;1.02;;
62353;SDS011;48391;49.184;2.418;2023-04-24T15:11:42;1.65;;;0.88;;
62353;SDS011;48391;49.184;2.418;2023-04-24T15:14:08;2.05;;;1.10;;
62353;SDS011;48391;49.184;2.418;2023-04-24T15:16:35;3.08;;;0.65;;
62353;SDS011;48391;49.184;2.418;2023-04-24T15:19:01;0.70;;;0.70;;
62353;SDS011;48391;49.184;2.418;2023-04-24T15:21:27;0.90;;;0.80;;
62353;SDS011;48391;49.184;2.418;2023-04-24T15:23:54;0.82;;;0.82;;
62353;SDS011;48391;49.184;2.418;2023-04-24T15:26:20;0.43;;;0.40;;
62353;SDS011;48391;49.184;2.418;2023-04-24T15:28:47;0.65;;;0.63;;
62353;SDS011;48391;49.184;2.418;2023-04-24T15:31:13;1.17;;;1.02;;
62353;SDS011;48391;49.184;2.418;2023-04-24T15:33:39;2.03;;;0.77;;
62353;SDS011;48391;49.184;2.418;2023-04-24T15:36:05;0.85;;;0.60;;
62353;SDS011;48391;49.184;2.418;2023-04-24T15:38:31;0.70;;;0.43;;
62353;SDS011;48391;49.184;2.418;2023-04-24T15:40:57;1.75;;;0.50;;
62353;SDS011;48391;49.184;2.418;2023-04-24T15:43:23;2.10;;;1.27;;
62353;SDS011;48391;49.184;2.418;2023-04-24T15:45:49;0.82;;;0.80;;
62353;SDS011;48391;49.184;2.418;2023-04-24T15:48:16;0.50;;;0.50;;
62353;SDS011;48391;49.184;2.418;2023-04-24T15:50:42;1.40;;;0.68;;
62353;SDS011;48391;49.184;2.418;2023-04-24T15:53:08;2.97;;;0.90;;
62353;SDS011;48391;49.184;2.418;2023-04-24T15:55:34;1.08;;;0.70;;
62353;SDS011;48391;49.184;2.418;2023-04-24T15:58:01;1.50;;;1.17;;
62353;SDS011;48391;49.184;2.418;2023-04-24T16:00:27;0.68;;;0.50;;
62353;SDS011;48391;49.184;2.418;2023-04-24T16:02:59;2.88;;;0.90;;
62353;SDS011;48391;49.184;2.418;2023-04-24T16:05:25;2.03;;;1.30;;
62353;SDS011;48391;49.184;2.418;2023-04-24T16:07:51;2.58;;;1.55;;
62353;SDS011;48391;49.184;2.418;2023-04-24T16:10:17;0.65;;;0.50;;
62353;SDS011;48391;49.184;2.418;2023-04-24T16:12:43;1.25;;;1.10;;
62353;SDS011;48391;49.184;2.418;2023-04-24T16:15:09;1.63;;;1.13;;
62353;SDS011;48391;49.184;2.418;2023-04-24T16:17:35;0.70;;;0.70;;
62353;SDS011;48391;49.184;2.418;2023-04-24T16:20:02;1.52;;;0.75;;